This is the latest recevied weather packets stored in our database for station/object IK1YPD-13. If no packets are shown the sender has not sent any weather packets the latest 1 day(s).
| Time | Temp. | Humidity | Pressure | Rain* | Wind** | Luminosity | Snow |
|---|---|---|---|---|---|---|---|
| 1777761511 | 11.11° C | 69% | 1018 hPa | - | - | - | - |
| 1777760611 | 11.11° C | 70% | 1018 hPa | - | - | - | - |
| 1777759711 | 11.11° C | 70% | 1018 hPa | - | - | - | - |
| 1777758810 | 11.11° C | 71% | 1018 hPa | - | - | - | - |
| 1777757910 | 11.67° C | 69% | 1018 hPa | - | - | - | - |
| 1777757010 | 11.67° C | 69% | 1018 hPa | - | - | - | - |
| 1777756110 | 11.67° C | 70% | 1018 hPa | - | - | - | - |
| 1777755210 | 11.67° C | 69% | 1018 hPa | - | - | - | - |
| 1777754310 | 12.22° C | 68% | 1018 hPa | - | - | - | - |
| 1777753410 | 12.22° C | 68% | 1018 hPa | - | - | - | - |
| 1777752509 | 12.78° C | 66% | 1018 hPa | - | - | - | - |
| 1777751609 | 13.33° C | 65% | 1018 hPa | - | - | - | - |
| 1777750709 | 13.33° C | 64% | 1018 hPa | - | - | - | - |
| 1777749809 | 13.89° C | 62% | 1018 hPa | - | - | - | - |
| 1777748909 | 14.44° C | 61% | 1018 hPa | - | - | - | - |
| 1777748012 | 15° C | 60% | 1018 hPa | - | - | - | - |
| 1777747109 | 15.56° C | 57% | 1018 hPa | - | - | - | - |
| 1777746209 | 16.67° C | 55% | 1018 hPa | - | - | - | - |
| 1777745309 | 17.22° C | 53% | 1017 hPa | - | - | - | - |
| 1777744409 | 17.78° C | 49% | 1017 hPa | - | - | - | - |
| 1777743509 | 18.33° C | 45% | 1017 hPa | - | - | - | - |
| 1777742609 | 18.89° C | 43% | 1017 hPa | - | - | - | - |
| 1777741709 | 18.33° C | 46% | 1018 hPa | - | - | - | - |
| 1777740809 | 18.33° C | 43% | 1018 hPa | - | - | - | - |
| 1777739909 | 18.33° C | 46% | 1018 hPa | - | - | - | - |
* Rain since midnight (hover to see other rain measurements)
** Current wind speed in m/s (hover to see current wind gust speed)